sensor_id;sensor_type;location;lat;lon;timestamp;pressure;altitude;pressure_sealevel;temperature;humidity
23953;BME280;12163;49.316;6.092;2023-12-20T00:01:01;99556.66;;;9.26;79.37
23953;BME280;12163;49.316;6.092;2023-12-20T00:03:28;99551.06;;;9.23;79.57
23953;BME280;12163;49.316;6.092;2023-12-20T00:06:00;99549.19;;;9.18;79.64
23953;BME280;12163;49.316;6.092;2023-12-20T00:08:27;99547.56;;;9.17;79.53
23953;BME280;12163;49.316;6.092;2023-12-20T00:10:54;99541.69;;;9.10;79.71
23953;BME280;12163;49.316;6.092;2023-12-20T00:13:20;99536.84;;;9.02;79.93
23953;BME280;12163;49.316;6.092;2023-12-20T00:15:47;99545.50;;;8.94;80.05
23953;BME280;12163;49.316;6.092;2023-12-20T00:18:13;99542.53;;;8.91;80.47
23953;BME280;12163;49.316;6.092;2023-12-20T00:20:40;99532.88;;;8.85;80.37
23953;BME280;12163;49.316;6.092;2023-12-20T00:23:06;99535.84;;;8.83;80.85
23953;BME280;12163;49.316;6.092;2023-12-20T00:25:34;99538.00;;;8.81;81.20
23953;BME280;12163;49.316;6.092;2023-12-20T00:28:01;99527.22;;;8.81;81.04
23953;BME280;12163;49.316;6.092;2023-12-20T00:30:28;99524.00;;;8.84;81.11
23953;BME280;12163;49.316;6.092;2023-12-20T00:32:55;99506.78;;;8.85;80.87
23953;BME280;12163;49.316;6.092;2023-12-20T00:35:22;99522.94;;;8.80;80.91
23953;BME280;12163;49.316;6.092;2023-12-20T00:37:49;99535.31;;;8.76;80.96
23953;BME280;12163;49.316;6.092;2023-12-20T00:40:15;99539.09;;;8.75;81.16
23953;BME280;12163;49.316;6.092;2023-12-20T00:42:42;99562.22;;;8.76;81.43
23953;BME280;12163;49.316;6.092;2023-12-20T00:45:09;99543.41;;;8.71;81.38
23953;BME280;12163;49.316;6.092;2023-12-20T00:47:35;99518.94;;;8.68;81.50
23953;BME280;12163;49.316;6.092;2023-12-20T00:50:02;99510.88;;;8.68;81.69
23953;BME280;12163;49.316;6.092;2023-12-20T00:52:29;99518.13;;;8.62;81.90
23953;BME280;12163;49.316;6.092;2023-12-20T00:54:56;99519.75;;;8.63;81.87
23953;BME280;12163;49.316;6.092;2023-12-20T00:57:22;99548.25;;;8.64;82.28
23953;BME280;12163;49.316;6.092;2023-12-20T00:59:49;99550.97;;;8.59;82.29
23953;BME280;12163;49.316;6.092;2023-12-20T01:02:16;99560.38;;;8.62;82.56
23953;BME280;12163;49.316;6.092;2023-12-20T01:04:43;99561.16;;;8.62;82.61
23953;BME280;12163;49.316;6.092;2023-12-20T01:07:09;99545.03;;;8.62;82.34
23953;BME280;12163;49.316;6.092;2023-12-20T01:09:36;99550.41;;;8.62;82.68
23953;BME280;12163;49.316;6.092;2023-12-20T01:12:02;99553.13;;;8.57;82.79
23953;BME280;12163;49.316;6.092;2023-12-20T01:14:29;99541.56;;;8.57;83.16
23953;BME280;12163;49.316;6.092;2023-12-20T01:16:55;99537.81;;;8.58;82.92
23953;BME280;12163;49.316;6.092;2023-12-20T01:19:22;99540.75;;;8.56;83.00
23953;BME280;12163;49.316;6.092;2023-12-20T01:21:50;99537.81;;;8.58;83.00
23953;BME280;12163;49.316;6.092;2023-12-20T01:24:17;99535.38;;;8.56;83.25
23953;BME280;12163;49.316;6.092;2023-12-20T01:26:43;99535.66;;;8.55;83.37
23953;BME280;12163;49.316;6.092;2023-12-20T01:29:10;99535.38;;;8.56;83.14
23953;BME280;12163;49.316;6.092;2023-12-20T01:31:36;99545.59;;;8.54;83.24
23953;BME280;12163;49.316;6.092;2023-12-20T01:34:03;99551.50;;;8.56;83.37
23953;BME280;12163;49.316;6.092;2023-12-20T01:36:29;99539.41;;;8.59;83.41
23953;BME280;12163;49.316;6.092;2023-12-20T01:38:56;99536.44;;;8.60;83.14
23953;BME280;12163;49.316;6.092;2023-12-20T01:41:23;99548.56;;;8.58;83.08
23953;BME280;12163;49.316;6.092;2023-12-20T01:43:49;99549.34;;;8.58;83.38
23953;BME280;12163;49.316;6.092;2023-12-20T01:46:18;99555.78;;;8.62;83.40
23953;BME280;12163;49.316;6.092;2023-12-20T01:48:48;99546.66;;;8.63;82.89
23953;BME280;12163;49.316;6.092;2023-12-20T01:51:15;99553.63;;;8.64;83.12
23953;BME280;12163;49.316;6.092;2023-12-20T01:53:42;99560.09;;;8.63;83.15
23953;BME280;12163;49.316;6.092;2023-12-20T01:56:09;99547.19;;;8.60;83.30
23953;BME280;12163;49.316;6.092;2023-12-20T01:58:39;99544.50;;;8.60;83.33
23953;BME280;12163;49.316;6.092;2023-12-20T02:01:08;99557.94;;;8.60;83.33
23953;BME280;12163;49.316;6.092;2023-12-20T02:03:35;99560.13;;;8.58;83.01
23953;BME280;12163;49.316;6.092;2023-12-20T02:06:04;99557.16;;;8.60;83.24
23953;BME280;12163;49.316;6.092;2023-12-20T02:08:31;99570.88;;;8.58;83.20
23953;BME280;12163;49.316;6.092;2023-12-20T02:10:58;99575.69;;;8.61;83.25
23953;BME280;12163;49.316;6.092;2023-12-20T02:13:24;99574.63;;;8.62;83.23
23953;BME280;12163;49.316;6.092;2023-12-20T02:15:54;99591.84;;;8.66;83.50
23953;BME280;12163;49.316;6.092;2023-12-20T02:18:21;99583.78;;;8.66;82.77
23953;BME280;12163;49.316;6.092;2023-12-20T02:20:48;99587.53;;;8.65;83.04
23953;BME280;12163;49.316;6.092;2023-12-20T02:23:14;99579.19;;;8.67;82.70
23953;BME280;12163;49.316;6.092;2023-12-20T02:25:41;99587.00;;;8.68;82.67
23953;BME280;12163;49.316;6.092;2023-12-20T02:28:08;99591.84;;;8.66;82.77
23953;BME280;12163;49.316;6.092;2023-12-20T02:30:35;99587.53;;;8.75;82.58
23953;BME280;12163;49.316;6.092;2023-12-20T02:33:04;99588.59;;;8.74;82.16
23953;BME280;12163;49.316;6.092;2023-12-20T02:35:34;99596.13;;;8.77;81.99
23953;BME280;12163;49.316;6.092;2023-12-20T02:38:00;99605.78;;;8.83;82.10
23953;BME280;12163;49.316;6.092;2023-12-20T02:40:27;99602.03;;;8.84;81.92
23953;BME280;12163;49.316;6.092;2023-12-20T02:42:53;99595.84;;;8.84;81.91
23953;BME280;12163;49.316;6.092;2023-12-20T02:45:20;99603.63;;;8.85;81.74
23953;BME280;12163;49.316;6.092;2023-12-20T02:47:47;99597.19;;;8.86;81.50
23953;BME280;12163;49.316;6.092;2023-12-20T02:50:14;99603.41;;;8.82;81.36
23953;BME280;12163;49.316;6.092;2023-12-20T02:52:42;99594.78;;;8.80;81.97
23953;BME280;12163;49.316;6.092;2023-12-20T02:55:09;99604.47;;;8.81;81.95
23953;BME280;12163;49.316;6.092;2023-12-20T02:57:35;99607.94;;;8.81;81.95
23953;BME280;12163;49.316;6.092;2023-12-20T03:00:03;99609.31;;;8.79;82.05
23953;BME280;12163;49.316;6.092;2023-12-20T03:02:30;99612.28;;;8.77;82.07
23953;BME280;12163;49.316;6.092;2023-12-20T03:04:56;99614.69;;;8.74;82.30
23953;BME280;12163;49.316;6.092;2023-12-20T03:07:23;99619.00;;;8.75;82.29
23953;BME280;12163;49.316;6.092;2023-12-20T03:09:49;99624.38;;;8.75;82.75
23953;BME280;12163;49.316;6.092;2023-12-20T03:12:36;99636.47;;;8.77;82.40
23953;BME280;12163;49.316;6.092;2023-12-20T03:15:03;99623.84;;;8.78;82.39
23953;BME280;12163;49.316;6.092;2023-12-20T03:17:29;99634.31;;;8.79;82.27
23953;BME280;12163;49.316;6.092;2023-12-20T03:19:56;99638.63;;;8.80;82.28
23953;BME280;12163;49.316;6.092;2023-12-20T03:22:22;99638.09;;;8.83;82.04
23953;BME280;12163;49.316;6.092;2023-12-20T03:24:49;99642.91;;;8.86;81.76
23953;BME280;12163;49.316;6.092;2023-12-20T03:27:15;99646.69;;;8.90;81.67
23953;BME280;12163;49.316;6.092;2023-12-20T03:29:42;99657.72;;;8.89;82.09
23953;BME280;12163;49.316;6.092;2023-12-20T03:32:08;99656.38;;;8.91;81.68
23953;BME280;12163;49.316;6.092;2023-12-20T03:34:35;99665.00;;;8.93;81.93
23953;BME280;12163;49.316;6.092;2023-12-20T03:37:02;99666.59;;;8.94;81.76
23953;BME280;12163;49.316;6.092;2023-12-20T03:39:28;99670.63;;;8.97;81.61
23953;BME280;12163;49.316;6.092;2023-12-20T03:41:55;99677.63;;;8.98;81.40
23953;BME280;12163;49.316;6.092;2023-12-20T03:44:21;99675.75;;;8.98;81.59
23953;BME280;12163;49.316;6.092;2023-12-20T03:46:48;99676.81;;;9.02;81.32
23953;BME280;12163;49.316;6.092;2023-12-20T03:49:15;99676.03;;;9.02;80.10
23953;BME280;12163;49.316;6.092;2023-12-20T03:51:42;99681.13;;;8.98;80.28
23953;BME280;12163;49.316;6.092;2023-12-20T03:54:09;99685.47;;;8.89;79.26
23953;BME280;12163;49.316;6.092;2023-12-20T03:56:35;99698.63;;;8.86;78.63
23953;BME280;12163;49.316;6.092;2023-12-20T03:59:02;99698.66;;;8.81;77.74
23953;BME280;12163;49.316;6.092;2023-12-20T04:01:28;99691.91;;;8.78;77.42
23953;BME280;12163;49.316;6.092;2023-12-20T04:03:55;99691.38;;;8.76;77.26
23953;BME280;12163;49.316;6.092;2023-12-20T04:06:22;99694.63;;;8.68;74.81
23953;BME280;12163;49.316;6.092;2023-12-20T04:08:48;99706.97;;;8.59;73.67
23953;BME280;12163;49.316;6.092;2023-12-20T04:11:15;99704.81;;;8.51;73.25
23953;BME280;12163;49.316;6.092;2023-12-20T04:13:41;99711.25;;;8.40;73.05
23953;BME280;12163;49.316;6.092;2023-12-20T04:16:08;99711.78;;;8.32;72.65
23953;BME280;12163;49.316;6.092;2023-12-20T04:18:34;99718.75;;;8.24;72.64
23953;BME280;12163;49.316;6.092;2023-12-20T04:21:01;99725.69;;;8.15;72.93
23953;BME280;12163;49.316;6.092;2023-12-20T04:23:28;99713.31;;;8.04;73.86
23953;BME280;12163;49.316;6.092;2023-12-20T04:25:54;99714.34;;;7.98;74.23
23953;BME280;12163;49.316;6.092;2023-12-20T04:28:21;99713.25;;;7.89;74.21
23953;BME280;12163;49.316;6.092;2023-12-20T04:30:47;99713.22;;;7.84;74.10
23953;BME280;12163;49.316;6.092;2023-12-20T04:33:14;99720.16;;;7.75;73.76
23953;BME280;12163;49.316;6.092;2023-12-20T04:35:41;99719.59;;;7.68;73.77
23953;BME280;12163;49.316;6.092;2023-12-20T04:38:09;99722.81;;;7.60;73.83
23953;BME280;12163;49.316;6.092;2023-12-20T04:40:35;99723.03;;;7.53;73.80
23953;BME280;12163;49.316;6.092;2023-12-20T04:43:02;99726.22;;;7.45;73.55
23953;BME280;12163;49.316;6.092;2023-12-20T04:45:28;99718.13;;;7.40;73.54
23953;BME280;12163;49.316;6.092;2023-12-20T04:47:55;99712.47;;;7.37;73.41
23953;BME280;12163;49.316;6.092;2023-12-20T04:50:22;99723.75;;;7.34;73.36
23953;BME280;12163;49.316;6.092;2023-12-20T04:52:48;99720.75;;;7.30;73.25
23953;BME280;12163;49.316;6.092;2023-12-20T04:55:15;99725.81;;;7.27;73.91
23953;BME280;12163;49.316;6.092;2023-12-20T04:57:41;99729.56;;;7.26;74.06
23953;BME280;12163;49.316;6.092;2023-12-20T05:00:10;99738.97;;;7.23;74.54
23953;BME280;12163;49.316;6.092;2023-12-20T05:02:37;99745.66;;;7.21;74.72
23953;BME280;12163;49.316;6.092;2023-12-20T05:05:03;99741.34;;;7.15;74.79
23953;BME280;12163;49.316;6.092;2023-12-20T05:07:30;99736.22;;;7.13;75.02
23953;BME280;12163;49.316;6.092;2023-12-20T05:09:56;99748.28;;;7.11;74.75
23953;BME280;12163;49.316;6.092;2023-12-20T05:12:23;99748.78;;;7.08;74.77
23953;BME280;12163;49.316;6.092;2023-12-20T05:14:51;99753.34;;;7.07;74.54
23953;BME280;12163;49.316;6.092;2023-12-20T05:17:18;99763.53;;;7.05;74.72
23953;BME280;12163;49.316;6.092;2023-12-20T05:19:46;99766.97;;;7.01;74.42
23953;BME280;12163;49.316;6.092;2023-12-20T05:22:13;99770.72;;;7.00;74.66
23953;BME280;12163;49.316;6.092;2023-12-20T05:24:39;99768.59;;;7.02;74.63
23953;BME280;12163;49.316;6.092;2023-12-20T05:27:06;99770.97;;;6.98;74.71
23953;BME280;12163;49.316;6.092;2023-12-20T05:29:33;99764.03;;;7.02;74.84
23953;BME280;12163;49.316;6.092;2023-12-20T05:31:59;99756.81;;;7.08;74.65
23953;BME280;12163;49.316;6.092;2023-12-20T05:34:26;99770.50;;;7.06;75.00
23953;BME280;12163;49.316;6.092;2023-12-20T05:36:52;99773.44;;;7.05;75.24
23953;BME280;12163;49.316;6.092;2023-12-20T05:39:19;99785.78;;;7.06;75.40
23953;BME280;12163;49.316;6.092;2023-12-20T05:41:45;99790.41;;;7.10;75.63
23953;BME280;12163;49.316;6.092;2023-12-20T05:44:12;99782.09;;;7.12;75.80
23953;BME280;12163;49.316;6.092;2023-12-20T05:46:38;99783.16;;;7.11;75.81
23953;BME280;12163;49.316;6.092;2023-12-20T05:49:06;99790.63;;;7.09;75.72
23953;BME280;12163;49.316;6.092;2023-12-20T05:51:33;99788.88;;;7.61;81.35
23953;BME280;12163;49.316;6.092;2023-12-20T05:53:59;99783.84;;;8.31;79.73
23953;BME280;12163;49.316;6.092;2023-12-20T05:56:26;99786.81;;;8.39;73.67
23953;BME280;12163;49.316;6.092;2023-12-20T05:58:53;99790.72;;;8.12;72.52
23953;BME280;12163;49.316;6.092;2023-12-20T06:01:19;99793.84;;;7.94;73.22
23953;BME280;12163;49.316;6.092;2023-12-20T06:03:46;99794.59;;;7.74;73.15
23953;BME280;12163;49.316;6.092;2023-12-20T06:06:12;99797.91;;;7.50;73.48
23953;BME280;12163;49.316;6.092;2023-12-20T06:08:43;99800.66;;;7.55;76.33
23953;BME280;12163;49.316;6.092;2023-12-20T06:11:10;99796.38;;;7.59;74.96
23953;BME280;12163;49.316;6.092;2023-12-20T06:13:36;99799.09;;;7.64;74.44
23953;BME280;12163;49.316;6.092;2023-12-20T06:16:05;99806.66;;;7.72;76.88
23953;BME280;12163;49.316;6.092;2023-12-20T06:18:34;99809.97;;;7.94;75.13
23953;BME280;12163;49.316;6.092;2023-12-20T06:21:00;99800.31;;;7.93;72.83
23953;BME280;12163;49.316;6.092;2023-12-20T06:23:27;99805.38;;;7.84;72.53
23953;BME280;12163;49.316;6.092;2023-12-20T06:25:54;99812.75;;;7.62;72.72
23953;BME280;12163;49.316;6.092;2023-12-20T06:28:20;99822.31;;;7.43;73.81
23953;BME280;12163;49.316;6.092;2023-12-20T06:30:47;99805.28;;;7.28;74.26
23953;BME280;12163;49.316;6.092;2023-12-20T06:33:16;99803.84;;;7.15;74.81
23953;BME280;12163;49.316;6.092;2023-12-20T06:35:43;99809.09;;;7.00;75.07
23953;BME280;12163;49.316;6.092;2023-12-20T06:38:09;99807.38;;;6.89;75.38
23953;BME280;12163;49.316;6.092;2023-12-20T06:40:36;99805.19;;;6.81;75.74
23953;BME280;12163;49.316;6.092;2023-12-20T06:43:02;99812.03;;;6.72;76.04
23953;BME280;12163;49.316;6.092;2023-12-20T06:45:41;99812.75;;;6.63;76.28
23953;BME280;12163;49.316;6.092;2023-12-20T06:48:08;99810.03;;;6.58;76.68
23953;BME280;12163;49.316;6.092;2023-12-20T06:50:37;99806.00;;;6.56;76.46
23953;BME280;12163;49.316;6.092;2023-12-20T06:53:06;99808.88;;;6.49;77.00
23953;BME280;12163;49.316;6.092;2023-12-20T06:55:37;99813.69;;;6.47;77.13
23953;BME280;12163;49.316;6.092;2023-12-20T06:58:04;99815.81;;;6.45;77.07
23953;BME280;12163;49.316;6.092;2023-12-20T07:00:32;99813.91;;;6.46;77.38
23953;BME280;12163;49.316;6.092;2023-12-20T07:02:59;99827.81;;;6.43;77.31
23953;BME280;12163;49.316;6.092;2023-12-20T07:05:25;99821.63;;;6.42;77.15
23953;BME280;12163;49.316;6.092;2023-12-20T07:07:53;99827.00;;;6.42;77.20
23953;BME280;12163;49.316;6.092;2023-12-20T07:10:20;99821.91;;;6.41;77.56
23953;BME280;12163;49.316;6.092;2023-12-20T07:12:46;99815.22;;;6.43;78.05
23953;BME280;12163;49.316;6.092;2023-12-20T07:15:15;99824.13;;;6.49;77.82
23953;BME280;12163;49.316;6.092;2023-12-20T07:17:41;99820.66;;;6.48;77.37
23953;BME280;12163;49.316;6.092;2023-12-20T07:20:09;99830.38;;;6.54;77.95
23953;BME280;12163;49.316;6.092;2023-12-20T07:22:37;99817.00;;;6.59;77.74
23953;BME280;12163;49.316;6.092;2023-12-20T07:25:04;99817.88;;;6.64;77.65
23953;BME280;12163;49.316;6.092;2023-12-20T07:27:31;99828.91;;;6.68;77.92
23953;BME280;12163;49.316;6.092;2023-12-20T07:29:57;99827.34;;;6.72;77.86
23953;BME280;12163;49.316;6.092;2023-12-20T07:32:24;99837.56;;;6.75;77.63
23953;BME280;12163;49.316;6.092;2023-12-20T07:34:51;99834.91;;;6.80;78.18
23953;BME280;12163;49.316;6.092;2023-12-20T07:37:18;99830.94;;;6.82;77.82
23953;BME280;12163;49.316;6.092;2023-12-20T07:39:44;99839.25;;;6.86;78.14
23953;BME280;12163;49.316;6.092;2023-12-20T07:42:11;99839.81;;;6.88;77.84
23953;BME280;12163;49.316;6.092;2023-12-20T07:44:38;99840.41;;;6.90;78.11
23953;BME280;12163;49.316;6.092;2023-12-20T07:47:04;99850.31;;;6.89;77.73
23953;BME280;12163;49.316;6.092;2023-12-20T07:49:31;99846.25;;;6.87;78.00
23953;BME280;12163;49.316;6.092;2023-12-20T07:51:58;99848.69;;;6.88;78.24
23953;BME280;12163;49.316;6.092;2023-12-20T07:54:25;99844.16;;;6.89;77.62
23953;BME280;12163;49.316;6.092;2023-12-20T07:56:52;99856.50;;;6.90;77.99
23953;BME280;12163;49.316;6.092;2023-12-20T07:59:18;99851.91;;;6.90;77.95
23953;BME280;12163;49.316;6.092;2023-12-20T08:01:57;99858.16;;;6.96;77.64
23953;BME280;12163;49.316;6.092;2023-12-20T08:04:24;99857.41;;;7.00;77.61
23953;BME280;12163;49.316;6.092;2023-12-20T08:06:51;99852.31;;;7.04;77.19
23953;BME280;12163;49.316;6.092;2023-12-20T08:09:18;99863.34;;;7.07;77.34
23953;BME280;12163;49.316;6.092;2023-12-20T08:11:46;99868.41;;;7.04;76.86
23953;BME280;12163;49.316;6.092;2023-12-20T08:14:13;99853.94;;;7.05;76.97
23953;BME280;12163;49.316;6.092;2023-12-20T08:16:41;99863.00;;;6.99;77.58
23953;BME280;12163;49.316;6.092;2023-12-20T08:19:08;99856.06;;;7.03;76.95
23953;BME280;12163;49.316;6.092;2023-12-20T08:21:34;99853.13;;;7.04;77.29
23953;BME280;12163;49.316;6.092;2023-12-20T08:24:06;99856.41;;;7.11;77.34
23953;BME280;12163;49.316;6.092;2023-12-20T08:26:33;99855.38;;;7.17;77.13
23953;BME280;12163;49.316;6.092;2023-12-20T08:29:00;99853.25;;;7.19;76.82
23953;BME280;12163;49.316;6.092;2023-12-20T08:31:28;99862.13;;;7.20;76.80
23953;BME280;12163;49.316;6.092;2023-12-20T08:33:55;99862.16;;;7.25;77.00
23953;BME280;12163;49.316;6.092;2023-12-20T08:36:22;99860.53;;;7.24;77.08
23953;BME280;12163;49.316;6.092;2023-12-20T08:38:50;99863.31;;;7.34;76.88
23953;BME280;12163;49.316;6.092;2023-12-20T08:41:17;99867.91;;;7.38;76.76
23953;BME280;12163;49.316;6.092;2023-12-20T08:43:44;99860.47;;;7.45;76.57
23953;BME280;12163;49.316;6.092;2023-12-20T08:46:10;99864.50;;;7.48;75.99
23953;BME280;12163;49.316;6.092;2023-12-20T08:48:38;99867.22;;;7.53;76.06
23953;BME280;12163;49.316;6.092;2023-12-20T08:51:05;99849.53;;;7.57;76.05
23953;BME280;12163;49.316;6.092;2023-12-20T08:53:35;99839.03;;;7.55;75.67
23953;BME280;12163;49.316;6.092;2023-12-20T08:56:01;99856.25;;;7.59;75.86
23953;BME280;12163;49.316;6.092;2023-12-20T08:58:28;99861.38;;;7.61;75.66
23953;BME280;12163;49.316;6.092;2023-12-20T09:00:55;99860.84;;;7.64;75.65
23953;BME280;12163;49.316;6.092;2023-12-20T09:03:22;99873.25;;;7.70;75.95
23953;BME280;12163;49.316;6.092;2023-12-20T09:05:48;99865.94;;;7.65;76.03
23953;BME280;12163;49.316;6.092;2023-12-20T09:08:15;99868.41;;;7.67;76.49
23953;BME280;12163;49.316;6.092;2023-12-20T09:10:41;99864.94;;;7.71;75.97
23953;BME280;12163;49.316;6.092;2023-12-20T09:13:08;99877.03;;;7.74;76.07
23953;BME280;12163;49.316;6.092;2023-12-20T09:15:35;99866.28;;;7.74;75.56
23953;BME280;12163;49.316;6.092;2023-12-20T09:18:02;99870.31;;;7.71;75.77
23953;BME280;12163;49.316;6.092;2023-12-20T09:20:30;99882.16;;;7.75;75.82
23953;BME280;12163;49.316;6.092;2023-12-20T09:22:58;99889.38;;;7.75;74.78
23953;BME280;12163;49.316;6.092;2023-12-20T09:25:25;99875.41;;;7.73;75.65
23953;BME280;12163;49.316;6.092;2023-12-20T09:27:53;99884.81;;;7.70;75.81
23953;BME280;12163;49.316;6.092;2023-12-20T09:30:20;99871.91;;;7.67;75.92
23953;BME280;12163;49.316;6.092;2023-12-20T09:32:54;99875.38;;;7.68;75.89
23953;BME280;12163;49.316;6.092;2023-12-20T09:35:21;99875.38;;;7.68;75.42
23953;BME280;12163;49.316;6.092;2023-12-20T09:37:48;99867.34;;;7.73;75.16
23953;BME280;12163;49.316;6.092;2023-12-20T09:40:17;99862.84;;;7.78;75.51
23953;BME280;12163;49.316;6.092;2023-12-20T09:42:55;99878.41;;;7.76;74.97
23953;BME280;12163;49.316;6.092;2023-12-20T09:45:23;99876.28;;;7.83;75.22
23953;BME280;12163;49.316;6.092;2023-12-20T09:47:51;99873.91;;;7.87;75.15
23953;BME280;12163;49.316;6.092;2023-12-20T09:50:19;99868.53;;;7.87;75.14
23953;BME280;12163;49.316;6.092;2023-12-20T09:52:52;99872.84;;;7.93;74.61
23953;BME280;12163;49.316;6.092;2023-12-20T09:55:20;99862.09;;;7.93;74.33
23953;BME280;12163;49.316;6.092;2023-12-20T09:57:47;99852.19;;;7.93;74.04
23953;BME280;12163;49.316;6.092;2023-12-20T10:00:15;99864.56;;;7.94;74.03
23953;BME280;12163;49.316;6.092;2023-12-20T10:02:58;99866.72;;;7.97;74.59
23953;BME280;12163;49.316;6.092;2023-12-20T10:05:32;99889.06;;;8.03;74.58
23953;BME280;12163;49.316;6.092;2023-12-20T10:08:00;99892.25;;;8.00;73.81
23953;BME280;12163;49.316;6.092;2023-12-20T10:10:28;99891.69;;;7.98;73.75
23953;BME280;12163;49.316;6.092;2023-12-20T10:13:11;99875.56;;;7.98;74.09
23953;BME280;12163;49.316;6.092;2023-12-20T10:15:38;99875.56;;;7.98;73.97
23953;BME280;12163;49.316;6.092;2023-12-20T10:18:05;99869.69;;;8.01;73.55
23953;BME280;12163;49.316;6.092;2023-12-20T10:20:32;99854.38;;;8.01;73.59
23953;BME280;12163;49.316;6.092;2023-12-20T10:23:00;99861.34;;;8.02;73.00
23953;BME280;12163;49.316;6.092;2023-12-20T10:25:28;99859.44;;;7.98;73.29
23953;BME280;12163;49.316;6.092;2023-12-20T10:28:11;99854.06;;;7.98;73.24
23953;BME280;12163;49.316;6.092;2023-12-20T10:30:39;99833.69;;;8.02;73.44
23953;BME280;12163;49.316;6.092;2023-12-20T10:33:07;99838.00;;;8.08;73.06
23953;BME280;12163;49.316;6.092;2023-12-20T10:35:38;99851.75;;;8.11;73.51
23953;BME280;12163;49.316;6.092;2023-12-20T10:38:10;99843.16;;;8.14;73.41
23953;BME280;12163;49.316;6.092;2023-12-20T10:40:37;99845.88;;;8.19;73.30
23953;BME280;12163;49.316;6.092;2023-12-20T10:43:05;99846.69;;;8.20;72.67
23953;BME280;12163;49.316;6.092;2023-12-20T10:45:32;99843.50;;;8.23;72.30
23953;BME280;12163;49.316;6.092;2023-12-20T10:47:59;99843.22;;;8.24;72.02
23953;BME280;12163;49.316;6.092;2023-12-20T10:50:28;99843.75;;;8.21;71.29
23953;BME280;12163;49.316;6.092;2023-12-20T10:52:55;99841.88;;;8.22;71.97
23953;BME280;12163;49.316;6.092;2023-12-20T10:55:23;99842.38;;;8.19;72.15
23953;BME280;12163;49.316;6.092;2023-12-20T10:57:51;99831.56;;;8.14;72.62
23953;BME280;12163;49.316;6.092;2023-12-20T11:00:19;99844.50;;;8.17;72.76
23953;BME280;12163;49.316;6.092;2023-12-20T11:02:49;99841.81;;;8.17;72.59
23953;BME280;12163;49.316;6.092;2023-12-20T11:05:38;99841.25;;;8.15;73.05
23953;BME280;12163;49.316;6.092;2023-12-20T11:08:13;99848.22;;;8.11;73.09
23953;BME280;12163;49.316;6.092;2023-12-20T11:13:21;99838.31;;;8.11;72.93
23953;BME280;12163;49.316;6.092;2023-12-20T11:15:49;99835.34;;;8.13;72.94
23953;BME280;12163;49.316;6.092;2023-12-20T11:18:16;99832.41;;;8.14;73.36
23953;BME280;12163;49.316;6.092;2023-12-20T11:20:42;99836.50;;;8.22;72.90
23953;BME280;12163;49.316;6.092;2023-12-20T11:23:09;99833.53;;;8.18;72.87
23953;BME280;12163;49.316;6.092;2023-12-20T11:26:05;99821.94;;;8.18;73.64
23953;BME280;12163;49.316;6.092;2023-12-20T11:28:31;99821.41;;;8.21;73.54
23953;BME280;12163;49.316;6.092;2023-12-20T11:31:00;99818.78;;;8.26;72.92
23953;BME280;12163;49.316;6.092;2023-12-20T11:33:37;99820.94;;;8.29;72.73
23953;BME280;12163;49.316;6.092;2023-12-20T11:36:13;99817.41;;;8.23;72.50
23953;BME280;12163;49.316;6.092;2023-12-20T11:38:55;99818.19;;;8.19;73.13
23953;BME280;12163;49.316;6.092;2023-12-20T11:41:23;99822.44;;;8.15;72.95
23953;BME280;12163;49.316;6.092;2023-12-20T11:43:53;99804.16;;;8.17;73.01
23953;BME280;12163;49.316;6.092;2023-12-20T11:46:20;99804.25;;;8.22;73.02
23953;BME280;12163;49.316;6.092;2023-12-20T11:48:48;99816.34;;;8.29;72.88
23953;BME280;12163;49.316;6.092;2023-12-20T11:51:15;99810.16;;;8.24;73.09
23953;BME280;12163;49.316;6.092;2023-12-20T11:53:42;99815.00;;;8.27;73.28
23953;BME280;12163;49.316;6.092;2023-12-20T11:56:09;99812.34;;;8.32;73.38
23953;BME280;12163;49.316;6.092;2023-12-20T11:58:36;99819.34;;;8.37;73.31
23953;BME280;12163;49.316;6.092;2023-12-20T12:01:04;99838.69;;;8.34;73.12
23953;BME280;12163;49.316;6.092;2023-12-20T12:03:34;99821.72;;;8.29;73.37
23953;BME280;12163;49.316;6.092;2023-12-20T12:06:01;99828.47;;;8.32;73.51
23953;BME280;12163;49.316;6.092;2023-12-20T12:08:29;99805.88;;;8.32;73.36
23953;BME280;12163;49.316;6.092;2023-12-20T12:10:56;99802.13;;;8.33;73.55
23953;BME280;12163;49.316;6.092;2023-12-20T12:13:23;99815.31;;;8.35;73.26
23953;BME280;12163;49.316;6.092;2023-12-20T12:15:53;99811.78;;;8.30;73.28
23953;BME280;12163;49.316;6.092;2023-12-20T12:18:20;99797.00;;;8.32;73.18
23953;BME280;12163;49.316;6.092;2023-12-20T12:20:47;99800.50;;;8.37;73.19
23953;BME280;12163;49.316;6.092;2023-12-20T12:23:14;99799.97;;;8.40;73.04
23953;BME280;12163;49.316;6.092;2023-12-20T12:25:41;99791.66;;;8.42;73.03
23953;BME280;12163;49.316;6.092;2023-12-20T12:28:09;99792.44;;;8.42;73.10
23953;BME280;12163;49.316;6.092;2023-12-20T12:30:36;99782.78;;;8.41;72.98
23953;BME280;12163;49.316;6.092;2023-12-20T12:33:11;99796.50;;;8.45;73.09
23953;BME280;12163;49.316;6.092;2023-12-20T12:35:40;99775.78;;;8.40;73.32
23953;BME280;12163;49.316;6.092;2023-12-20T12:38:07;99785.47;;;8.41;73.63
23953;BME280;12163;49.316;6.092;2023-12-20T12:40:35;99776.31;;;8.42;73.53
23953;BME280;12163;49.316;6.092;2023-12-20T12:43:02;99769.63;;;8.45;73.59
23953;BME280;12163;49.316;6.092;2023-12-20T12:45:30;99760.47;;;8.41;73.49
23953;BME280;12163;49.316;6.092;2023-12-20T12:47:57;99766.91;;;8.40;73.78
23953;BME280;12163;49.316;6.092;2023-12-20T12:50:24;99751.56;;;8.40;73.52
23953;BME280;12163;49.316;6.092;2023-12-20T12:52:51;99743.78;;;8.39;73.73
23953;BME280;12163;49.316;6.092;2023-12-20T12:55:17;99742.44;;;8.41;73.95
23953;BME280;12163;49.316;6.092;2023-12-20T12:57:44;99749.44;;;8.42;73.59
23953;BME280;12163;49.316;6.092;2023-12-20T13:00:11;99745.94;;;8.42;74.22
23953;BME280;12163;49.316;6.092;2023-12-20T13:02:38;99746.50;;;8.49;73.60
23953;BME280;12163;49.316;6.092;2023-12-20T13:05:08;99745.16;;;8.51;73.93
23953;BME280;12163;49.316;6.092;2023-12-20T13:07:35;99735.72;;;8.54;73.58
23953;BME280;12163;49.316;6.092;2023-12-20T13:10:02;99744.63;;;8.59;73.52
23953;BME280;12163;49.316;6.092;2023-12-20T13:12:30;99732.78;;;8.60;73.48
23953;BME280;12163;49.316;6.092;2023-12-20T13:14:56;99736.56;;;8.64;73.52